DAL9274 PHNL-KDEN
Flight info
| Callsign | DAL9274 |
|---|---|
| Flight time | 6h 2m |
| Altitude | 37000 |
| Route | MKK5 CODDY EBBER R577 ETECO DINTY/N0466F390 C1176 RZS PMD DAG KL36M DICEE BUMMP SSKII4 |
| Aircraft | A339/H-SADE1E2E3GHIJ3J5M1P2RWXY/LB2D1 |
Departure
| Time | 2026-05-04 22:13 |
|---|---|
| Airport | Daniel K. Inouye International Airport (PHNL) |
Arrival
| Time | 2026-05-05 04:16 |
|---|---|
| Airport | Denver International Airport (KDEN) |
| Time | Latitude | Longitude | Altitude | Speed | Heading |
|---|---|---|---|---|---|
| 2026-05-04 21:40 | 21.32995 | -157.91958 | 24 ft | 0 kts | 279° |
| 2026-05-04 21:59 | 21.32993 | -157.91943 | 29 ft | 4 kts | 276° |
| 2026-05-04 21:59 | 21.32990 | -157.91919 | 29 ft | 2 kts | 262° |
| 2026-05-04 21:59 | 21.32992 | -157.91904 | 29 ft | 2 kts | 240° |
| 2026-05-04 21:59 | 21.32999 | -157.91891 | 30 ft | 2 kts | 218° |
| 2026-05-04 22:00 | 21.33014 | -157.91879 | 32 ft | 0 kts | 196° |
| 2026-05-04 22:00 | 21.33002 | -157.91883 | 30 ft | 3 kts | 194° |
| 2026-05-04 22:00 | 21.32992 | -157.91886 | 30 ft | 0 kts | 194° |
| 2026-05-04 22:05 | 21.32989 | -157.91886 | 25 ft | 1 kts | 194° |
| 2026-05-04 22:05 | 21.32968 | -157.91891 | 29 ft | 5 kts | 192° |
| 2026-05-04 22:05 | 21.32919 | -157.91900 | 26 ft | 9 kts | 189° |
| 2026-05-04 22:06 | 21.32841 | -157.91914 | 23 ft | 14 kts | 189° |
| 2026-05-04 22:06 | 21.32743 | -157.91945 | 26 ft | 15 kts | 215° |
| 2026-05-04 22:06 | 21.32680 | -157.92040 | 28 ft | 16 kts | 239° |
| 2026-05-04 22:06 | 21.32618 | -157.92152 | 31 ft | 20 kts | 239° |
| 2026-05-04 22:07 | 21.32522 | -157.92253 | 27 ft | 12 kts | 188° |
| 2026-05-04 22:07 | 21.32516 | -157.92248 | 28 ft | 1 kts | 159° |
| 2026-05-04 22:07 | 21.32508 | -157.92237 | 28 ft | 4 kts | 137° |
| 2026-05-04 22:07 | 21.32479 | -157.92210 | 28 ft | 7 kts | 140° |
| 2026-05-04 22:08 | 21.32430 | -157.92174 | 29 ft | 10 kts | 148° |
| 2026-05-04 22:08 | 21.32362 | -157.92131 | 29 ft | 13 kts | 150° |
| 2026-05-04 22:08 | 21.32268 | -157.92074 | 27 ft | 18 kts | 150° |
| 2026-05-04 22:08 | 21.32147 | -157.92000 | 27 ft | 20 kts | 150° |
| 2026-05-04 22:09 | 21.32025 | -157.91926 | 30 ft | 21 kts | 150° |
| 2026-05-04 22:09 | 21.31892 | -157.91845 | 28 ft | 22 kts | 151° |
| 2026-05-04 22:09 | 21.31782 | -157.91871 | 25 ft | 16 kts | 232° |
| 2026-05-04 22:09 | 21.31713 | -157.91968 | 27 ft | 17 kts | 232° |
| 2026-05-04 22:10 | 21.31637 | -157.92074 | 21 ft | 19 kts | 233° |
| 2026-05-04 22:10 | 21.31553 | -157.92195 | 21 ft | 21 kts | 233° |
| 2026-05-04 22:10 | 21.31466 | -157.92320 | 20 ft | 21 kts | 233° |
| 2026-05-04 22:10 | 21.31373 | -157.92451 | 20 ft | 22 kts | 232° |
| 2026-05-04 22:11 | 21.31296 | -157.92578 | 21 ft | 18 kts | 255° |
| 2026-05-04 22:11 | 21.31346 | -157.92659 | 28 ft | 12 kts | 320° |
| 2026-05-04 22:11 | 21.31411 | -157.92675 | 27 ft | 9 kts | 22° |
| 2026-05-04 22:11 | 21.31447 | -157.92637 | 25 ft | 0 kts | 53° |
| 2026-05-04 22:12 | 21.31473 | -157.92602 | 25 ft | 30 kts | 51° |
| 2026-05-04 22:12 | 21.31767 | -157.92188 | 23 ft | 106 kts | 52° |
| 2026-05-04 22:13 | 21.32342 | -157.91373 | 25 ft | 164 kts | 53° |
| 2026-05-04 22:13 | 21.33077 | -157.90330 | 515 ft | 177 kts | 53° |
| 2026-05-04 22:13 | 21.33778 | -157.89276 | 1402 ft | 172 kts | 54° |
| 2026-05-04 22:13 | 21.34455 | -157.88247 | 2258 ft | 168 kts | 56° |
| 2026-05-04 22:14 | 21.35111 | -157.87212 | 2992 ft | 167 kts | 57° |
| 2026-05-04 22:14 | 21.35792 | -157.86202 | 3688 ft | 170 kts | 56° |
| 2026-05-04 22:14 | 21.36530 | -157.85149 | 4196 ft | 184 kts | 55° |
| 2026-05-04 22:14 | 21.37329 | -157.84017 | 4671 ft | 196 kts | 55° |
| 2026-05-04 22:15 | 21.38176 | -157.82810 | 5100 ft | 211 kts | 55° |
| 2026-05-04 22:15 | 21.38962 | -157.81388 | 5281 ft | 233 kts | 73° |
| 2026-05-04 22:15 | 21.39091 | -157.79629 | 5476 ft | 251 kts | 99° |
| 2026-05-04 22:15 | 21.38519 | -157.77795 | 5748 ft | 267 kts | 116° |
| 2026-05-04 22:16 | 21.37646 | -157.76006 | 6296 ft | 272 kts | 120° |
| 2026-05-04 22:16 | 21.36749 | -157.74196 | 6847 ft | 276 kts | 118° |
| 2026-05-04 22:16 | 21.35899 | -157.72331 | 7400 ft | 280 kts | 116° |
| 2026-05-04 22:16 | 21.35095 | -157.70414 | 7937 ft | 283 kts | 115° |
| 2026-05-04 22:17 | 21.34321 | -157.68482 | 8483 ft | 286 kts | 114° |
| 2026-05-04 22:17 | 21.33542 | -157.66501 | 9011 ft | 290 kts | 113° |
| 2026-05-04 22:17 | 21.32753 | -157.64487 | 9558 ft | 294 kts | 113° |
| 2026-05-04 22:17 | 21.31956 | -157.62456 | 10074 ft | 297 kts | 113° |
| 2026-05-04 22:18 | 21.31131 | -157.60363 | 10271 ft | 312 kts | 113° |
| 2026-05-04 22:18 | 21.30260 | -157.58157 | 10412 ft | 328 kts | 113° |
| 2026-05-04 22:18 | 21.29359 | -157.55881 | 10552 ft | 343 kts | 114° |
| 2026-05-04 22:18 | 21.28416 | -157.53498 | 10904 ft | 349 kts | 114° |
| 2026-05-04 22:19 | 21.27463 | -157.51091 | 11361 ft | 352 kts | 114° |
| 2026-05-04 22:19 | 21.26502 | -157.48664 | 11799 ft | 355 kts | 114° |
| 2026-05-04 22:19 | 21.25531 | -157.46213 | 12250 ft | 358 kts | 114° |
| 2026-05-04 22:19 | 21.24552 | -157.43743 | 12689 ft | 361 kts | 114° |
| 2026-05-04 22:20 | 21.23575 | -157.41281 | 13139 ft | 364 kts | 114° |
| 2026-05-04 22:20 | 21.22576 | -157.38762 | 13565 ft | 368 kts | 114° |
| 2026-05-04 22:20 | 21.21584 | -157.36272 | 14017 ft | 370 kts | 114° |
| 2026-05-04 22:20 | 21.20553 | -157.33677 | 14391 ft | 373 kts | 114° |
| 2026-05-04 22:21 | 21.19534 | -157.31116 | 14833 ft | 375 kts | 114° |
| 2026-05-04 22:21 | 21.18505 | -157.28536 | 15247 ft | 377 kts | 114° |
| 2026-05-04 22:21 | 21.17483 | -157.25974 | 15642 ft | 380 kts | 114° |
| 2026-05-04 22:21 | 21.16507 | -157.23338 | 16029 ft | 382 kts | 109° |
| 2026-05-04 22:22 | 21.15843 | -157.20565 | 16425 ft | 386 kts | 101° |
| 2026-05-04 22:22 | 21.15542 | -157.17704 | 16834 ft | 388 kts | 92° |
| 2026-05-04 22:22 | 21.15606 | -157.14806 | 17236 ft | 391 kts | 85° |
| 2026-05-04 22:22 | 21.16036 | -157.11923 | 17622 ft | 393 kts | 77° |
| 2026-05-04 22:23 | 21.16826 | -157.09113 | 18003 ft | 396 kts | 69° |
| 2026-05-04 22:23 | 21.17913 | -157.06397 | 18440 ft | 397 kts | 65° |
| 2026-05-04 22:23 | 21.19019 | -157.03678 | 18773 ft | 399 kts | 66° |
| 2026-05-04 22:23 | 21.20121 | -157.00929 | 19123 ft | 402 kts | 66° |
| 2026-05-04 22:24 | 21.21216 | -156.98171 | 19468 ft | 404 kts | 66° |
| 2026-05-04 22:24 | 21.22317 | -156.95391 | 19832 ft | 406 kts | 66° |
| 2026-05-04 22:24 | 21.23423 | -156.92596 | 20170 ft | 409 kts | 66° |
| 2026-05-04 22:24 | 21.24534 | -156.89788 | 20544 ft | 410 kts | 66° |
| 2026-05-04 22:25 | 21.25651 | -156.86965 | 20927 ft | 412 kts | 66° |
| 2026-05-04 22:25 | 21.26758 | -156.84168 | 21277 ft | 414 kts | 66° |
| 2026-05-04 22:25 | 21.27900 | -156.81278 | 21648 ft | 417 kts | 66° |
| 2026-05-04 22:25 | 21.29018 | -156.78445 | 21999 ft | 419 kts | 66° |
| 2026-05-04 22:26 | 21.30160 | -156.75553 | 22369 ft | 421 kts | 66° |
| 2026-05-04 22:26 | 21.31294 | -156.72644 | 22733 ft | 424 kts | 68° |
| 2026-05-04 22:26 | 21.32262 | -156.69642 | 23094 ft | 427 kts | 72° |
| 2026-05-04 22:26 | 21.33008 | -156.66550 | 23471 ft | 430 kts | 77° |
| 2026-05-04 22:27 | 21.33540 | -156.63373 | 23806 ft | 433 kts | 81° |
| 2026-05-04 22:27 | 21.33844 | -156.60157 | 24169 ft | 434 kts | 86° |
| 2026-05-04 22:27 | 21.34027 | -156.56903 | 24466 ft | 437 kts | 86° |
| 2026-05-04 22:27 | 21.34224 | -156.53676 | 24783 ft | 439 kts | 85° |
| 2026-05-04 22:28 | 21.34431 | -156.50386 | 25103 ft | 442 kts | 85° |
| 2026-05-04 22:28 | 21.34639 | -156.47084 | 25445 ft | 444 kts | 85° |
| 2026-05-04 22:28 | 21.34848 | -156.43765 | 25769 ft | 446 kts | 85° |
| 2026-05-04 22:28 | 21.35055 | -156.40440 | 26102 ft | 448 kts | 85° |
| 2026-05-04 22:29 | 21.35259 | -156.37145 | 26435 ft | 450 kts | 85° |
| 2026-05-04 22:29 | 21.35466 | -156.33785 | 26765 ft | 452 kts | 85° |
| 2026-05-04 22:29 | 21.35673 | -156.30411 | 27093 ft | 454 kts | 85° |
| 2026-05-04 22:29 | 21.35879 | -156.27027 | 27410 ft | 456 kts | 85° |
| 2026-05-04 22:30 | 21.36087 | -156.23622 | 27732 ft | 458 kts | 85° |
| 2026-05-04 22:30 | 21.36294 | -156.20204 | 28057 ft | 461 kts | 85° |
| 2026-05-04 22:30 | 21.36502 | -156.16757 | 28384 ft | 463 kts | 85° |
| 2026-05-04 22:30 | 21.36710 | -156.13303 | 28699 ft | 465 kts | 85° |
| 2026-05-04 22:31 | 21.36919 | -156.09833 | 29026 ft | 467 kts | 85° |
| 2026-05-04 22:31 | 21.37128 | -156.06343 | 29332 ft | 469 kts | 85° |
| 2026-05-04 22:31 | 21.37337 | -156.02841 | 29621 ft | 472 kts | 85° |
| 2026-05-04 22:31 | 21.37547 | -155.99316 | 29918 ft | 474 kts | 85° |
| 2026-05-04 22:32 | 21.37754 | -155.95824 | 30227 ft | 476 kts | 85° |
| 2026-05-04 22:32 | 21.37964 | -155.92262 | 30490 ft | 478 kts | 85° |
| 2026-05-04 22:32 | 21.38174 | -155.88696 | 30753 ft | 480 kts | 85° |
| 2026-05-04 22:32 | 21.38384 | -155.85109 | 31016 ft | 483 kts | 86° |
| 2026-05-04 22:33 | 21.38594 | -155.81504 | 31285 ft | 485 kts | 86° |
| 2026-05-04 22:33 | 21.38805 | -155.77884 | 31541 ft | 487 kts | 86° |
| 2026-05-04 22:33 | 21.39016 | -155.74241 | 31777 ft | 490 kts | 86° |
| 2026-05-04 22:33 | 21.39227 | -155.70590 | 32034 ft | 492 kts | 86° |
| 2026-05-04 22:34 | 21.39438 | -155.66915 | 32296 ft | 494 kts | 86° |
| 2026-05-04 22:34 | 21.39649 | -155.63231 | 32534 ft | 496 kts | 86° |
| 2026-05-04 22:34 | 21.39858 | -155.59575 | 32738 ft | 498 kts | 86° |
| 2026-05-04 22:34 | 21.40069 | -155.55857 | 32940 ft | 500 kts | 86° |
| 2026-05-04 22:35 | 21.40281 | -155.52122 | 33118 ft | 502 kts | 86° |
| 2026-05-04 22:35 | 21.40491 | -155.48382 | 33295 ft | 503 kts | 86° |
| 2026-05-04 22:35 | 21.40702 | -155.44630 | 33438 ft | 505 kts | 86° |
| 2026-05-04 22:35 | 21.40913 | -155.40864 | 33583 ft | 506 kts | 86° |
| 2026-05-04 22:36 | 21.41123 | -155.37093 | 33740 ft | 506 kts | 86° |
| 2026-05-04 22:36 | 21.41333 | -155.33323 | 33918 ft | 506 kts | 86° |
| 2026-05-04 22:36 | 21.41541 | -155.29551 | 34091 ft | 506 kts | 86° |
| 2026-05-04 22:36 | 21.41748 | -155.25783 | 34251 ft | 506 kts | 86° |
| 2026-05-04 22:37 | 21.41955 | -155.22010 | 34414 ft | 506 kts | 86° |
| 2026-05-04 22:37 | 21.42162 | -155.18237 | 34561 ft | 506 kts | 86° |
| 2026-05-04 22:37 | 21.42374 | -155.14471 | 34699 ft | 506 kts | 85° |
| 2026-05-04 22:37 | 21.42841 | -155.10729 | 34826 ft | 506 kts | 80° |
| 2026-05-04 22:38 | 21.43421 | -155.07009 | 34971 ft | 506 kts | 80° |
| 2026-05-04 22:38 | 21.43993 | -155.03286 | 35121 ft | 506 kts | 80° |
| 2026-05-04 22:38 | 21.44560 | -154.99560 | 35256 ft | 506 kts | 80° |
| 2026-05-04 22:38 | 21.45115 | -154.95885 | 35372 ft | 507 kts | 80° |
| 2026-05-04 22:39 | 21.45677 | -154.92149 | 35496 ft | 507 kts | 80° |
| 2026-05-04 22:39 | 21.46238 | -154.88413 | 35641 ft | 507 kts | 80° |
| 2026-05-04 22:39 | 21.46797 | -154.84677 | 35782 ft | 507 kts | 80° |
| 2026-05-04 22:39 | 21.47357 | -154.80936 | 35923 ft | 506 kts | 80° |
| 2026-05-04 22:40 | 21.47915 | -154.77205 | 36071 ft | 506 kts | 80° |
| 2026-05-04 22:40 | 21.48471 | -154.73475 | 36209 ft | 506 kts | 80° |
| 2026-05-04 22:40 | 21.49028 | -154.69739 | 36343 ft | 506 kts | 80° |
| 2026-05-04 22:40 | 21.49582 | -154.66011 | 36468 ft | 506 kts | 80° |
| 2026-05-04 22:41 | 21.50136 | -154.62278 | 36615 ft | 506 kts | 80° |
| 2026-05-04 22:41 | 21.50689 | -154.58547 | 36750 ft | 506 kts | 80° |
| 2026-05-04 22:41 | 21.51241 | -154.54820 | 36878 ft | 506 kts | 81° |
| 2026-05-04 22:41 | 21.51793 | -154.51089 | 36999 ft | 506 kts | 81° |
| 2026-05-04 22:42 | 21.52344 | -154.47356 | 37138 ft | 505 kts | 81° |
| 2026-05-04 22:42 | 21.53434 | -154.39947 | 37148 ft | 504 kts | 81° |
| 2026-05-04 22:43 | 21.54526 | -154.32504 | 37143 ft | 504 kts | 81° |
| 2026-05-04 22:43 | 21.55617 | -154.25051 | 37148 ft | 504 kts | 81° |
| 2026-05-04 22:44 | 21.56703 | -154.17603 | 37144 ft | 504 kts | 81° |
| 2026-05-04 22:44 | 21.57785 | -154.10156 | 37144 ft | 504 kts | 81° |
| 2026-05-04 22:45 | 21.58863 | -154.02714 | 37148 ft | 504 kts | 81° |
| 2026-05-04 22:45 | 21.60466 | -153.91606 | 37142 ft | 503 kts | 81° |
| 2026-05-04 22:46 | 21.61535 | -153.84165 | 37140 ft | 503 kts | 81° |
| 2026-05-04 22:46 | 21.62601 | -153.76728 | 37142 ft | 503 kts | 81° |
| 2026-05-04 22:47 | 21.63663 | -153.69288 | 37143 ft | 503 kts | 81° |
| 2026-05-04 22:47 | 21.64715 | -153.61902 | 37150 ft | 503 kts | 81° |
| 2026-05-04 22:48 | 21.65772 | -153.54450 | 37152 ft | 503 kts | 81° |
| 2026-05-04 22:48 | 21.66824 | -153.47011 | 37151 ft | 503 kts | 81° |
| 2026-05-04 22:49 | 21.67872 | -153.39573 | 37149 ft | 503 kts | 81° |
| 2026-05-04 22:49 | 21.68916 | -153.32137 | 37153 ft | 503 kts | 81° |
| 2026-05-04 22:50 | 21.69783 | -153.25949 | 37154 ft | 503 kts | 81° |
| 2026-05-04 22:50 | 21.70912 | -153.18532 | 37153 ft | 502 kts | 76° |
| 2026-05-04 22:51 | 21.73122 | -153.11418 | 37154 ft | 501 kts | 64° |
| 2026-05-04 22:51 | 21.76366 | -153.04804 | 37146 ft | 500 kts | 60° |
| 2026-05-04 22:52 | 21.79691 | -152.98232 | 37157 ft | 500 kts | 60° |
| 2026-05-04 22:52 | 21.82984 | -152.91691 | 37155 ft | 500 kts | 60° |
| 2026-05-04 22:53 | 21.86293 | -152.85111 | 37161 ft | 500 kts | 60° |
| 2026-05-04 22:53 | 21.89602 | -152.78530 | 37157 ft | 500 kts | 60° |
| 2026-05-04 22:54 | 21.92909 | -152.71943 | 37161 ft | 500 kts | 60° |
| 2026-05-04 22:54 | 21.96210 | -152.65358 | 37161 ft | 499 kts | 60° |
| 2026-05-04 22:55 | 21.99513 | -152.58765 | 37161 ft | 499 kts | 60° |
| 2026-05-04 22:55 | 22.02811 | -152.52170 | 37162 ft | 499 kts | 60° |
| 2026-05-04 22:56 | 22.06102 | -152.45580 | 37161 ft | 499 kts | 60° |
| 2026-05-04 22:56 | 22.09370 | -152.39030 | 37161 ft | 499 kts | 60° |
| 2026-05-04 22:57 | 22.12660 | -152.32429 | 37162 ft | 499 kts | 60° |
| 2026-05-04 22:57 | 22.15938 | -152.25841 | 37157 ft | 499 kts | 60° |
| 2026-05-04 22:58 | 22.19202 | -152.19275 | 37162 ft | 498 kts | 60° |
| 2026-05-04 22:58 | 22.22473 | -152.12685 | 37160 ft | 498 kts | 60° |
| 2026-05-04 22:59 | 22.25742 | -152.06090 | 37162 ft | 498 kts | 60° |
| 2026-05-04 22:59 | 22.29007 | -151.99495 | 37163 ft | 498 kts | 60° |
| 2026-05-04 23:00 | 22.32269 | -151.92897 | 37163 ft | 498 kts | 60° |
| 2026-05-04 23:00 | 22.35539 | -151.86255 | 37179 ft | 505 kts | 59° |
| 2026-05-04 23:01 | 22.37197 | -151.82878 | 37295 ft | 506 kts | 61° |
| 2026-05-04 23:01 | 22.38827 | -151.79545 | 37156 ft | 496 kts | 61° |
| 2026-05-04 23:01 | 22.42035 | -151.72975 | 37167 ft | 496 kts | 61° |
| 2026-05-04 23:02 | 22.45255 | -151.66393 | 37164 ft | 498 kts | 61° |
| 2026-05-04 23:02 | 22.48490 | -151.59774 | 37163 ft | 498 kts | 61° |
| 2026-05-04 23:03 | 22.51727 | -151.53146 | 37165 ft | 497 kts | 61° |
| 2026-05-04 23:03 | 22.54959 | -151.46511 | 37163 ft | 498 kts | 61° |
| 2026-05-04 23:04 | 22.58173 | -151.39905 | 37167 ft | 498 kts | 61° |
| 2026-05-04 23:04 | 22.61401 | -151.33262 | 37170 ft | 498 kts | 61° |
| 2026-05-04 23:05 | 22.64623 | -151.26618 | 37169 ft | 497 kts | 61° |
| 2026-05-04 23:05 | 22.67845 | -151.19969 | 37167 ft | 498 kts | 61° |
| 2026-05-04 23:06 | 22.71046 | -151.13355 | 37167 ft | 498 kts | 61° |
| 2026-05-04 23:06 | 22.74260 | -151.06704 | 37170 ft | 499 kts | 61° |
| 2026-05-04 23:07 | 22.77477 | -151.00039 | 37169 ft | 499 kts | 61° |
| 2026-05-04 23:07 | 22.80697 | -150.93359 | 37172 ft | 500 kts | 61° |
| 2026-05-04 23:08 | 22.83917 | -150.86668 | 37175 ft | 501 kts | 61° |
| 2026-05-04 23:08 | 22.87141 | -150.79961 | 37177 ft | 501 kts | 61° |
| 2026-05-04 23:09 | 22.90361 | -150.73253 | 37177 ft | 502 kts | 61° |
| 2026-05-04 23:09 | 22.93562 | -150.66577 | 37176 ft | 502 kts | 61° |
| 2026-05-04 23:10 | 22.96780 | -150.59855 | 37172 ft | 502 kts | 61° |
| 2026-05-04 23:10 | 22.99997 | -150.53125 | 37176 ft | 503 kts | 61° |
| 2026-05-04 23:11 | 23.03218 | -150.46380 | 37173 ft | 503 kts | 61° |
| 2026-05-04 23:11 | 23.06437 | -150.39628 | 37177 ft | 503 kts | 61° |
| 2026-05-04 23:12 | 23.09654 | -150.32872 | 37176 ft | 504 kts | 61° |
| 2026-05-04 23:12 | 23.12868 | -150.26114 | 37175 ft | 504 kts | 61° |
| 2026-05-04 23:13 | 23.16082 | -150.19344 | 37177 ft | 504 kts | 61° |
| 2026-05-04 23:13 | 23.19294 | -150.12571 | 37179 ft | 504 kts | 61° |
| 2026-05-04 23:14 | 23.22505 | -150.05790 | 37176 ft | 504 kts | 61° |
| 2026-05-04 23:14 | 23.25694 | -149.99044 | 37177 ft | 505 kts | 61° |
| 2026-05-04 23:15 | 23.28902 | -149.92252 | 37180 ft | 505 kts | 61° |
| 2026-05-04 23:15 | 23.32110 | -149.85449 | 37176 ft | 505 kts | 61° |
| 2026-05-04 23:16 | 23.35317 | -149.78638 | 37176 ft | 505 kts | 61° |
| 2026-05-04 23:16 | 23.38523 | -149.71821 | 37176 ft | 505 kts | 61° |
| 2026-05-04 23:17 | 23.41706 | -149.65041 | 37177 ft | 505 kts | 61° |
| 2026-05-04 23:17 | 23.44902 | -149.58226 | 37182 ft | 505 kts | 61° |
| 2026-05-04 23:18 | 23.48097 | -149.51402 | 37164 ft | 506 kts | 61° |
| 2026-05-04 23:18 | 23.51290 | -149.44575 | 37166 ft | 506 kts | 61° |
| 2026-05-04 23:19 | 23.54482 | -149.37739 | 37166 ft | 506 kts | 61° |
| 2026-05-04 23:19 | 23.57672 | -149.30896 | 37174 ft | 506 kts | 61° |
| 2026-05-04 23:20 | 23.60843 | -149.24085 | 37190 ft | 506 kts | 61° |
| 2026-05-04 23:20 | 23.64032 | -149.17226 | 37175 ft | 506 kts | 61° |
| 2026-05-04 23:21 | 23.67215 | -149.10371 | 37178 ft | 506 kts | 61° |
| 2026-05-04 23:21 | 23.70397 | -149.03507 | 37092 ft | 507 kts | 61° |
| 2026-05-04 23:22 | 23.71988 | -149.00062 | 37196 ft | 510 kts | 60° |
| 2026-05-04 23:22 | 23.73597 | -148.96590 | 37181 ft | 516 kts | 60° |
| 2026-05-04 23:22 | 23.76838 | -148.89588 | 37177 ft | 523 kts | 60° |
| 2026-05-04 23:23 | 23.80114 | -148.82490 | 37181 ft | 522 kts | 60° |
| 2026-05-04 23:23 | 23.83378 | -148.75405 | 37180 ft | 522 kts | 60° |
| 2026-05-04 23:24 | 23.86638 | -148.68322 | 37179 ft | 522 kts | 60° |
| 2026-05-04 23:24 | 23.89900 | -148.61223 | 37174 ft | 522 kts | 60° |
| 2026-05-04 23:25 | 23.93151 | -148.54138 | 37177 ft | 521 kts | 60° |
| 2026-05-04 23:25 | 23.96397 | -148.47054 | 37179 ft | 521 kts | 60° |
| 2026-05-04 23:26 | 23.99641 | -148.39960 | 37180 ft | 521 kts | 60° |
| 2026-05-04 23:26 | 24.02880 | -148.32870 | 37180 ft | 521 kts | 60° |
| 2026-05-04 23:27 | 24.06112 | -148.25781 | 37182 ft | 521 kts | 60° |
| 2026-05-04 23:27 | 24.09320 | -148.18736 | 37181 ft | 520 kts | 60° |
| 2026-05-04 23:28 | 24.12550 | -148.11634 | 37183 ft | 520 kts | 60° |
| 2026-05-04 23:28 | 24.15772 | -148.04537 | 37184 ft | 520 kts | 60° |
| 2026-05-04 23:29 | 24.18990 | -147.97438 | 37182 ft | 520 kts | 60° |
| 2026-05-04 23:29 | 24.22203 | -147.90339 | 37184 ft | 520 kts | 60° |
| 2026-05-04 23:30 | 24.25412 | -147.83237 | 37184 ft | 520 kts | 61° |
| 2026-05-04 23:30 | 24.28591 | -147.76191 | 37182 ft | 519 kts | 61° |
| 2026-05-04 23:31 | 24.31790 | -147.69091 | 37183 ft | 519 kts | 61° |
| 2026-05-04 23:31 | 24.34985 | -147.61989 | 37181 ft | 519 kts | 61° |
| 2026-05-04 23:32 | 24.38175 | -147.54887 | 37182 ft | 519 kts | 61° |
| 2026-05-04 23:32 | 24.41363 | -147.47779 | 37186 ft | 519 kts | 61° |
| 2026-05-04 23:33 | 24.44543 | -147.40677 | 37183 ft | 519 kts | 61° |
| 2026-05-04 23:33 | 24.47704 | -147.33606 | 37184 ft | 518 kts | 61° |
| 2026-05-04 23:34 | 24.50876 | -147.26500 | 37184 ft | 518 kts | 61° |
| 2026-05-04 23:34 | 24.54047 | -147.19387 | 37185 ft | 518 kts | 61° |
| 2026-05-04 23:35 | 24.57215 | -147.12268 | 37187 ft | 518 kts | 61° |
| 2026-05-04 23:35 | 24.60376 | -147.05152 | 37178 ft | 518 kts | 61° |
| 2026-05-04 23:36 | 24.63536 | -146.98029 | 37170 ft | 518 kts | 61° |
| 2026-05-04 23:36 | 24.66691 | -146.90907 | 37194 ft | 518 kts | 61° |
| 2026-05-04 23:37 | 24.69841 | -146.83783 | 37197 ft | 518 kts | 61° |
| 2026-05-04 23:37 | 24.72989 | -146.76653 | 37188 ft | 518 kts | 61° |
| 2026-05-04 23:38 | 24.76116 | -146.69561 | 37177 ft | 518 kts | 61° |
| 2026-05-04 23:38 | 24.79255 | -146.62427 | 37195 ft | 518 kts | 61° |
| 2026-05-04 23:39 | 24.81862 | -146.56497 | 37189 ft | 518 kts | 61° |
| 2026-05-04 23:39 | 24.84994 | -146.49359 | 37196 ft | 518 kts | 61° |
| 2026-05-04 23:40 | 24.88122 | -146.42221 | 37184 ft | 518 kts | 61° |
| 2026-05-04 23:40 | 24.91248 | -146.35076 | 37191 ft | 517 kts | 62° |
| 2026-05-04 23:41 | 24.94372 | -146.27923 | 37189 ft | 517 kts | 62° |
| 2026-05-04 23:41 | 24.97488 | -146.20777 | 37189 ft | 517 kts | 62° |
| 2026-05-04 23:42 | 25.00604 | -146.13621 | 37195 ft | 517 kts | 62° |
| 2026-05-04 23:42 | 25.03694 | -146.06510 | 37188 ft | 517 kts | 62° |
| 2026-05-04 23:43 | 25.06799 | -145.99356 | 37192 ft | 517 kts | 62° |
| 2026-05-04 23:43 | 25.09902 | -145.92194 | 37197 ft | 517 kts | 62° |
| 2026-05-04 23:44 | 25.13001 | -145.85031 | 37197 ft | 517 kts | 62° |
| 2026-05-04 23:44 | 25.16096 | -145.77866 | 37199 ft | 516 kts | 62° |
| 2026-05-04 23:45 | 25.19167 | -145.70749 | 37195 ft | 516 kts | 62° |
| 2026-05-04 23:45 | 25.22257 | -145.63582 | 37199 ft | 516 kts | 62° |
| 2026-05-04 23:46 | 25.25337 | -145.56425 | 37202 ft | 516 kts | 62° |
| 2026-05-04 23:46 | 25.28415 | -145.49259 | 37202 ft | 516 kts | 62° |
| 2026-05-04 23:47 | 25.31468 | -145.42076 | 37195 ft | 515 kts | 62° |
| 2026-05-04 23:47 | 25.34523 | -145.34908 | 37199 ft | 515 kts | 62° |
| 2026-05-04 23:48 | 25.37562 | -145.27791 | 37201 ft | 515 kts | 62° |
| 2026-05-04 23:48 | 25.40618 | -145.20627 | 37203 ft | 515 kts | 62° |
| 2026-05-04 23:49 | 25.43671 | -145.13456 | 37202 ft | 515 kts | 62° |
| 2026-05-04 23:49 | 25.46716 | -145.06287 | 37201 ft | 514 kts | 62° |
| 2026-05-04 23:50 | 25.49754 | -144.99117 | 37205 ft | 514 kts | 62° |
| 2026-05-04 23:50 | 25.52790 | -144.91942 | 37206 ft | 514 kts | 62° |
| 2026-05-04 23:51 | 25.55818 | -144.84773 | 37202 ft | 514 kts | 63° |
| 2026-05-04 23:51 | 25.58841 | -144.77605 | 37205 ft | 513 kts | 63° |
| 2026-05-04 23:52 | 25.61859 | -144.70435 | 37201 ft | 513 kts | 63° |
| 2026-05-04 23:52 | 25.64857 | -144.63303 | 37207 ft | 513 kts | 63° |
| 2026-05-04 23:53 | 25.67867 | -144.56128 | 37207 ft | 513 kts | 63° |
| 2026-05-04 23:53 | 25.70870 | -144.48959 | 37205 ft | 512 kts | 63° |
| 2026-05-04 23:54 | 25.73870 | -144.41786 | 37208 ft | 512 kts | 63° |
| 2026-05-04 23:54 | 25.76863 | -144.34617 | 37206 ft | 512 kts | 63° |
| 2026-05-04 23:55 | 25.79856 | -144.27435 | 37207 ft | 512 kts | 63° |
| 2026-05-04 23:56 | 25.84328 | -144.16684 | 37212 ft | 511 kts | 63° |
| 2026-05-04 23:56 | 25.87285 | -144.09560 | 37207 ft | 511 kts | 63° |
| 2026-05-04 23:57 | 25.90257 | -144.02385 | 37206 ft | 511 kts | 63° |
| 2026-05-04 23:57 | 25.93226 | -143.95209 | 37214 ft | 510 kts | 63° |
| 2026-05-04 23:58 | 25.96184 | -143.88045 | 37213 ft | 510 kts | 63° |
| 2026-05-04 23:58 | 25.99140 | -143.80876 | 37215 ft | 510 kts | 63° |
| 2026-05-04 23:59 | 26.02089 | -143.73709 | 37210 ft | 510 kts | 63° |
| 2026-05-04 23:59 | 26.05015 | -143.66589 | 37213 ft | 509 kts | 63° |
| 2026-05-05 00:00 | 26.07954 | -143.59423 | 37222 ft | 509 kts | 63° |
| 2026-05-05 00:00 | 26.10888 | -143.52257 | 37230 ft | 509 kts | 63° |
| 2026-05-05 00:01 | 26.13816 | -143.45094 | 37213 ft | 509 kts | 63° |
| 2026-05-05 00:01 | 26.16741 | -143.37927 | 37208 ft | 508 kts | 63° |
| 2026-05-05 00:02 | 26.19664 | -143.30752 | 37211 ft | 508 kts | 63° |
| 2026-05-05 00:02 | 26.22578 | -143.23585 | 37220 ft | 508 kts | 63° |
| 2026-05-05 00:03 | 26.25491 | -143.16410 | 37222 ft | 508 kts | 64° |
| 2026-05-05 00:03 | 26.28398 | -143.09237 | 37220 ft | 508 kts | 64° |
| 2026-05-05 00:04 | 26.31299 | -143.02065 | 37221 ft | 508 kts | 64° |
| 2026-05-05 00:04 | 26.34196 | -142.94891 | 37221 ft | 507 kts | 64° |
| 2026-05-05 00:05 | 26.37076 | -142.87748 | 37219 ft | 507 kts | 64° |
| 2026-05-05 00:05 | 26.39967 | -142.80566 | 37220 ft | 507 kts | 64° |
| 2026-05-05 00:06 | 26.42853 | -142.73383 | 37227 ft | 507 kts | 64° |
| 2026-05-05 00:06 | 26.45737 | -142.66190 | 37226 ft | 507 kts | 64° |
| 2026-05-05 00:07 | 26.48618 | -142.58996 | 37231 ft | 507 kts | 64° |
| 2026-05-05 00:07 | 26.51473 | -142.51850 | 37227 ft | 507 kts | 64° |
| 2026-05-05 00:08 | 26.54346 | -142.44650 | 37228 ft | 507 kts | 64° |
| 2026-05-05 00:08 | 26.57212 | -142.37453 | 37228 ft | 507 kts | 64° |
| 2026-05-05 00:09 | 26.60075 | -142.30251 | 37223 ft | 507 kts | 64° |
| 2026-05-05 00:09 | 26.62935 | -142.23046 | 37226 ft | 507 kts | 64° |
| 2026-05-05 00:10 | 26.65789 | -142.15842 | 37227 ft | 507 kts | 64° |
| 2026-05-05 00:10 | 26.68640 | -142.08632 | 37231 ft | 507 kts | 64° |
| 2026-05-05 00:11 | 26.71486 | -142.01421 | 37228 ft | 507 kts | 64° |
| 2026-05-05 00:11 | 26.74327 | -141.94212 | 37226 ft | 507 kts | 64° |
| 2026-05-05 00:12 | 26.77167 | -141.86991 | 37225 ft | 506 kts | 64° |
| 2026-05-05 00:12 | 26.79979 | -141.79829 | 37228 ft | 506 kts | 64° |
| 2026-05-05 00:13 | 26.82811 | -141.72603 | 37229 ft | 506 kts | 64° |
| 2026-05-05 00:13 | 26.85640 | -141.65373 | 37228 ft | 506 kts | 64° |
| 2026-05-05 00:14 | 26.88465 | -141.58140 | 37234 ft | 506 kts | 64° |
| 2026-05-05 00:14 | 26.91289 | -141.50897 | 37226 ft | 506 kts | 64° |
| 2026-05-05 00:15 | 26.94104 | -141.43662 | 37224 ft | 506 kts | 64° |
| 2026-05-05 00:15 | 26.96897 | -141.36470 | 37237 ft | 506 kts | 64° |
| 2026-05-05 00:16 | 26.99704 | -141.29231 | 37235 ft | 506 kts | 64° |
| 2026-05-05 00:16 | 27.02510 | -141.21979 | 37234 ft | 506 kts | 64° |
| 2026-05-05 00:17 | 27.05312 | -141.14727 | 37234 ft | 506 kts | 64° |
| 2026-05-05 00:17 | 27.08106 | -141.07481 | 37230 ft | 506 kts | 64° |
| 2026-05-05 00:18 | 27.10898 | -141.00229 | 37229 ft | 506 kts | 64° |
| 2026-05-05 00:18 | 27.13686 | -140.92971 | 37229 ft | 506 kts | 64° |
| 2026-05-05 00:19 | 27.16470 | -140.85711 | 37229 ft | 506 kts | 64° |
| 2026-05-05 00:19 | 27.19232 | -140.78495 | 37231 ft | 506 kts | 64° |
| 2026-05-05 00:20 | 27.22007 | -140.71232 | 37233 ft | 506 kts | 64° |
| 2026-05-05 00:20 | 27.24779 | -140.63963 | 37231 ft | 506 kts | 64° |
| 2026-05-05 00:21 | 27.27548 | -140.56691 | 37230 ft | 506 kts | 64° |
| 2026-05-05 00:21 | 27.30312 | -140.49417 | 37229 ft | 506 kts | 64° |
| 2026-05-05 00:22 | 27.33074 | -140.42133 | 37231 ft | 506 kts | 64° |
| 2026-05-05 00:22 | 27.35809 | -140.34908 | 37233 ft | 506 kts | 64° |
| 2026-05-05 00:23 | 27.38561 | -140.27625 | 37233 ft | 505 kts | 64° |
| 2026-05-05 00:23 | 27.41308 | -140.20341 | 37235 ft | 505 kts | 64° |
| 2026-05-05 00:24 | 27.44051 | -140.13055 | 37232 ft | 505 kts | 64° |
| 2026-05-05 00:24 | 27.46789 | -140.05768 | 37232 ft | 505 kts | 64° |
| 2026-05-05 00:25 | 27.49523 | -139.98477 | 37236 ft | 505 kts | 64° |
| 2026-05-05 00:25 | 27.52251 | -139.91189 | 37237 ft | 505 kts | 64° |
| 2026-05-05 00:26 | 27.54978 | -139.83891 | 37234 ft | 505 kts | 64° |
| 2026-05-05 00:26 | 27.57683 | -139.76635 | 37235 ft | 505 kts | 64° |
| 2026-05-05 00:27 | 27.60400 | -139.69336 | 37237 ft | 505 kts | 64° |
| 2026-05-05 00:27 | 27.63114 | -139.62031 | 37237 ft | 505 kts | 64° |
| 2026-05-05 00:28 | 27.65822 | -139.54727 | 37237 ft | 505 kts | 64° |
| 2026-05-05 00:28 | 27.68087 | -139.48609 | 37238 ft | 505 kts | 64° |
| 2026-05-05 00:29 | 27.70772 | -139.41340 | 37238 ft | 505 kts | 65° |
| 2026-05-05 00:29 | 27.73472 | -139.34019 | 37239 ft | 505 kts | 65° |
| 2026-05-05 00:30 | 27.76169 | -139.26691 | 37240 ft | 504 kts | 65° |
| 2026-05-05 00:30 | 27.78859 | -139.19368 | 37240 ft | 504 kts | 65° |
| 2026-05-05 00:31 | 27.81528 | -139.12093 | 37236 ft | 504 kts | 65° |
| 2026-05-05 00:31 | 27.84212 | -139.04768 | 37238 ft | 504 kts | 65° |
| 2026-05-05 00:32 | 27.86892 | -138.97443 | 37237 ft | 504 kts | 65° |
| 2026-05-05 00:32 | 27.89569 | -138.90112 | 37236 ft | 504 kts | 65° |
| 2026-05-05 00:33 | 27.92180 | -138.82749 | 37236 ft | 505 kts | 66° |
| 2026-05-05 00:33 | 27.94837 | -138.75406 | 37241 ft | 504 kts | 64° |
| 2026-05-05 00:34 | 27.97508 | -138.68126 | 37238 ft | 504 kts | 65° |
| 2026-05-05 00:34 | 28.00175 | -138.60782 | 37243 ft | 504 kts | 65° |
| 2026-05-05 00:35 | 28.02833 | -138.53423 | 37238 ft | 505 kts | 65° |
| 2026-05-05 00:35 | 28.05486 | -138.46064 | 37246 ft | 505 kts | 65° |
| 2026-05-05 00:36 | 28.08134 | -138.38697 | 37241 ft | 505 kts | 65° |
| 2026-05-05 00:36 | 28.10773 | -138.31334 | 37239 ft | 505 kts | 65° |
| 2026-05-05 00:37 | 28.13412 | -138.23959 | 37235 ft | 505 kts | 65° |
| 2026-05-05 00:37 | 28.16029 | -138.16630 | 37247 ft | 505 kts | 65° |
| 2026-05-05 00:38 | 28.18661 | -138.09244 | 37251 ft | 505 kts | 65° |
| 2026-05-05 00:38 | 28.21289 | -138.01855 | 37236 ft | 505 kts | 65° |
| 2026-05-05 00:39 | 28.23912 | -137.94465 | 37230 ft | 505 kts | 65° |
| 2026-05-05 00:39 | 28.26531 | -137.87070 | 37236 ft | 505 kts | 65° |
| 2026-05-05 00:40 | 28.29130 | -137.79719 | 37239 ft | 505 kts | 65° |
| 2026-05-05 00:40 | 28.31745 | -137.72306 | 37243 ft | 505 kts | 65° |
| 2026-05-05 00:41 | 28.34352 | -137.64902 | 37243 ft | 505 kts | 65° |
| 2026-05-05 00:41 | 28.36957 | -137.57488 | 37240 ft | 505 kts | 65° |
| 2026-05-05 00:42 | 28.39555 | -137.50078 | 37241 ft | 505 kts | 65° |
| 2026-05-05 00:42 | 28.42151 | -137.42660 | 37244 ft | 505 kts | 65° |
| 2026-05-05 00:43 | 28.44727 | -137.35284 | 37242 ft | 505 kts | 65° |
| 2026-05-05 00:43 | 28.47317 | -137.27853 | 37244 ft | 505 kts | 65° |
| 2026-05-05 00:44 | 28.49905 | -137.20412 | 37241 ft | 505 kts | 65° |
| 2026-05-05 00:44 | 28.52486 | -137.12977 | 37242 ft | 505 kts | 65° |
| 2026-05-05 00:45 | 28.55061 | -137.05544 | 37244 ft | 505 kts | 65° |
| 2026-05-05 00:45 | 28.57633 | -136.98101 | 37242 ft | 505 kts | 65° |
| 2026-05-05 00:46 | 28.60202 | -136.90655 | 37242 ft | 505 kts | 65° |
| 2026-05-05 00:46 | 28.62766 | -136.83205 | 37242 ft | 505 kts | 65° |
| 2026-05-05 00:47 | 28.65313 | -136.75792 | 37243 ft | 505 kts | 65° |
| 2026-05-05 00:47 | 28.67869 | -136.68336 | 37240 ft | 505 kts | 65° |
| 2026-05-05 00:48 | 28.70422 | -136.60874 | 37240 ft | 505 kts | 65° |
| 2026-05-05 00:48 | 28.72971 | -136.53406 | 37242 ft | 506 kts | 65° |
| 2026-05-05 00:49 | 28.75517 | -136.45934 | 37241 ft | 506 kts | 65° |
| 2026-05-05 00:49 | 28.78059 | -136.38456 | 37242 ft | 506 kts | 65° |
| 2026-05-05 00:50 | 28.80581 | -136.31022 | 37238 ft | 506 kts | 65° |
| 2026-05-05 00:50 | 28.83115 | -136.23535 | 37240 ft | 506 kts | 65° |
| 2026-05-05 00:51 | 28.85647 | -136.16038 | 37242 ft | 506 kts | 65° |
| 2026-05-05 00:51 | 28.88175 | -136.08538 | 37239 ft | 506 kts | 65° |
| 2026-05-05 00:52 | 28.90697 | -136.01040 | 37239 ft | 506 kts | 65° |
| 2026-05-05 00:52 | 28.93203 | -135.93575 | 37236 ft | 506 kts | 65° |
| 2026-05-05 00:53 | 28.95719 | -135.86061 | 37236 ft | 506 kts | 65° |
| 2026-05-05 00:53 | 28.98228 | -135.78553 | 37236 ft | 506 kts | 65° |
| 2026-05-05 00:54 | 29.00738 | -135.71027 | 37236 ft | 506 kts | 65° |
| 2026-05-05 00:54 | 29.03240 | -135.63507 | 37237 ft | 506 kts | 65° |
| 2026-05-05 00:55 | 29.05725 | -135.56024 | 37236 ft | 506 kts | 65° |
| 2026-05-05 00:55 | 29.08218 | -135.48500 | 37239 ft | 506 kts | 65° |
| 2026-05-05 00:56 | 29.10707 | -135.40974 | 37224 ft | 506 kts | 65° |
| 2026-05-05 00:56 | 29.13197 | -135.33426 | 37224 ft | 506 kts | 65° |
| 2026-05-05 00:57 | 29.15679 | -135.25886 | 37232 ft | 506 kts | 65° |
| 2026-05-05 00:57 | 29.18158 | -135.18337 | 37232 ft | 506 kts | 65° |
| 2026-05-05 00:58 | 29.20633 | -135.10786 | 37230 ft | 506 kts | 65° |
| 2026-05-05 00:58 | 29.23102 | -135.03235 | 37228 ft | 507 kts | 65° |
| 2026-05-05 00:59 | 29.25553 | -134.95725 | 37229 ft | 507 kts | 65° |
| 2026-05-05 00:59 | 29.28018 | -134.88156 | 37230 ft | 507 kts | 65° |
| 2026-05-05 01:00 | 29.30478 | -134.80584 | 37229 ft | 507 kts | 65° |
| 2026-05-05 01:00 | 29.32934 | -134.73007 | 37222 ft | 507 kts | 65° |
| 2026-05-05 01:01 | 29.35386 | -134.65427 | 37226 ft | 507 kts | 65° |
| 2026-05-05 01:01 | 29.37834 | -134.57840 | 37228 ft | 507 kts | 65° |
| 2026-05-05 01:02 | 29.40277 | -134.50252 | 37224 ft | 507 kts | 65° |
| 2026-05-05 01:02 | 29.42701 | -134.42709 | 37222 ft | 507 kts | 65° |
| 2026-05-05 01:03 | 29.45137 | -134.35109 | 37220 ft | 507 kts | 65° |
| 2026-05-05 01:03 | 29.47568 | -134.27509 | 37220 ft | 507 kts | 65° |
| 2026-05-05 01:04 | 29.49994 | -134.19907 | 37221 ft | 507 kts | 65° |
| 2026-05-05 01:04 | 29.53629 | -134.08481 | 37219 ft | 508 kts | 65° |
| 2026-05-05 01:05 | 29.56046 | -134.00863 | 37215 ft | 508 kts | 65° |
| 2026-05-05 01:05 | 29.58463 | -133.93230 | 37213 ft | 508 kts | 65° |
| 2026-05-05 01:06 | 29.60876 | -133.85591 | 37216 ft | 508 kts | 65° |
| 2026-05-05 01:06 | 29.63271 | -133.77992 | 37210 ft | 508 kts | 65° |
| 2026-05-05 01:07 | 29.65691 | -133.70294 | 37216 ft | 509 kts | 65° |
| 2026-05-05 01:07 | 29.68076 | -133.62690 | 37211 ft | 509 kts | 65° |
| 2026-05-05 01:08 | 29.70472 | -133.55034 | 37210 ft | 509 kts | 65° |
| 2026-05-05 01:08 | 29.72866 | -133.47367 | 37211 ft | 509 kts | 65° |
| 2026-05-05 01:09 | 29.75256 | -133.39695 | 37207 ft | 509 kts | 65° |
| 2026-05-05 01:09 | 29.77641 | -133.32023 | 37206 ft | 509 kts | 65° |
| 2026-05-05 01:10 | 29.80021 | -133.24347 | 37204 ft | 509 kts | 65° |
| 2026-05-05 01:10 | 29.82394 | -133.16675 | 37202 ft | 509 kts | 65° |
| 2026-05-05 01:11 | 29.84766 | -133.08989 | 37208 ft | 509 kts | 65° |
| 2026-05-05 01:11 | 29.87118 | -133.01352 | 37198 ft | 509 kts | 65° |
| 2026-05-05 01:12 | 29.89478 | -132.93666 | 37188 ft | 509 kts | 65° |
| 2026-05-05 01:12 | 29.91433 | -132.87291 | 37194 ft | 509 kts | 64° |
| 2026-05-05 01:13 | 29.93787 | -132.79592 | 37199 ft | 509 kts | 64° |
| 2026-05-05 01:13 | 29.96134 | -132.71902 | 37196 ft | 509 kts | 64° |
| 2026-05-05 01:14 | 29.98132 | -132.65338 | 37197 ft | 509 kts | 64° |
| 2026-05-05 01:14 | 30.00138 | -132.58736 | 37199 ft | 509 kts | 64° |
| 2026-05-05 01:15 | 30.01647 | -132.53759 | 37169 ft | 510 kts | 64° |
| 2026-05-05 01:15 | 30.03823 | -132.46572 | 37220 ft | 508 kts | 64° |
| 2026-05-05 01:16 | 30.06089 | -132.39069 | 37189 ft | 509 kts | 64° |
| 2026-05-05 01:16 | 30.08416 | -132.31348 | 37179 ft | 509 kts | 64° |
| 2026-05-05 01:17 | 30.10575 | -132.24165 | 37186 ft | 509 kts | 64° |
| 2026-05-05 01:17 | 30.12647 | -132.17258 | 37179 ft | 509 kts | 64° |
| 2026-05-05 01:18 | 30.14195 | -132.12087 | 37193 ft | 509 kts | 64° |
| 2026-05-05 01:18 | 30.16523 | -132.04295 | 37195 ft | 509 kts | 64° |
| 2026-05-05 01:19 | 30.18492 | -131.97692 | 37178 ft | 510 kts | 64° |
| 2026-05-05 01:19 | 30.20788 | -131.89977 | 37188 ft | 510 kts | 64° |
| 2026-05-05 01:20 | 30.23095 | -131.82216 | 37181 ft | 510 kts | 64° |
| 2026-05-05 01:20 | 30.25400 | -131.74447 | 37170 ft | 511 kts | 64° |
| 2026-05-05 01:21 | 30.27704 | -131.66660 | 37172 ft | 511 kts | 64° |
| 2026-05-05 01:21 | 30.30173 | -131.58980 | 37168 ft | 505 kts | 58° |
| 2026-05-05 01:22 | 30.33211 | -131.51725 | 37167 ft | 504 kts | 56° |
| 2026-05-05 01:22 | 30.36249 | -131.44391 | 37167 ft | 505 kts | 57° |
| 2026-05-05 01:23 | 30.39221 | -131.36998 | 37165 ft | 506 kts | 58° |
| 2026-05-05 01:23 | 30.42174 | -131.29586 | 37164 ft | 507 kts | 58° |
| 2026-05-05 01:24 | 30.44867 | -131.22817 | 37160 ft | 507 kts | 58° |
| 2026-05-05 01:24 | 30.47254 | -131.16809 | 37169 ft | 508 kts | 58° |
| 2026-05-05 01:25 | 30.49673 | -131.10708 | 37162 ft | 508 kts | 58° |
| 2026-05-05 01:25 | 30.52078 | -131.04626 | 37216 ft | 507 kts | 58° |
| 2026-05-05 01:26 | 30.54669 | -130.98061 | 37142 ft | 509 kts | 58° |
| 2026-05-05 01:26 | 30.57284 | -130.91424 | 37171 ft | 508 kts | 58° |
| 2026-05-05 01:27 | 30.59947 | -130.84651 | 37126 ft | 509 kts | 58° |
| 2026-05-05 01:27 | 30.62560 | -130.77995 | 37194 ft | 508 kts | 58° |
| 2026-05-05 01:28 | 30.64958 | -130.71874 | 37184 ft | 508 kts | 58° |
| 2026-05-05 01:28 | 30.67532 | -130.65294 | 37097 ft | 510 kts | 58° |
| 2026-05-05 01:29 | 30.69872 | -130.59304 | 37151 ft | 509 kts | 58° |
| 2026-05-05 01:29 | 30.72550 | -130.52431 | 37113 ft | 511 kts | 58° |
| 2026-05-05 01:30 | 30.74984 | -130.46177 | 37168 ft | 510 kts | 58° |
| 2026-05-05 01:30 | 30.77690 | -130.39208 | 37158 ft | 510 kts | 58° |
| 2026-05-05 01:31 | 30.80292 | -130.32495 | 37129 ft | 511 kts | 58° |
| 2026-05-05 01:31 | 30.82732 | -130.26188 | 37198 ft | 510 kts | 58° |
| 2026-05-05 01:32 | 30.85362 | -130.19380 | 37120 ft | 512 kts | 58° |
| 2026-05-05 01:32 | 30.87926 | -130.12728 | 37160 ft | 511 kts | 58° |
| 2026-05-05 01:33 | 30.90838 | -130.05161 | 37143 ft | 511 kts | 58° |
| 2026-05-05 01:33 | 30.93741 | -129.97598 | 37141 ft | 511 kts | 58° |
| 2026-05-05 01:34 | 30.96641 | -129.90029 | 37146 ft | 511 kts | 58° |
| 2026-05-05 01:34 | 30.99535 | -129.82460 | 37134 ft | 511 kts | 58° |
| 2026-05-05 01:35 | 31.02429 | -129.74876 | 37126 ft | 511 kts | 58° |
| 2026-05-05 01:35 | 31.05313 | -129.67300 | 37125 ft | 511 kts | 58° |
| 2026-05-05 01:36 | 31.08197 | -129.59712 | 37130 ft | 511 kts | 58° |
| 2026-05-05 01:36 | 31.11051 | -129.52182 | 37129 ft | 511 kts | 58° |
| 2026-05-05 01:37 | 31.13925 | -129.44585 | 37126 ft | 511 kts | 59° |
| 2026-05-05 01:37 | 31.16797 | -129.36977 | 37118 ft | 511 kts | 59° |
| 2026-05-05 01:38 | 31.19661 | -129.29375 | 37123 ft | 511 kts | 59° |
| 2026-05-05 01:38 | 31.22519 | -129.21767 | 37123 ft | 511 kts | 59° |
| 2026-05-05 01:39 | 31.25373 | -129.14159 | 37119 ft | 511 kts | 59° |
| 2026-05-05 01:39 | 31.28201 | -129.06600 | 37118 ft | 511 kts | 59° |
| 2026-05-05 01:40 | 31.31039 | -128.98997 | 37115 ft | 511 kts | 60° |
| 2026-05-05 01:40 | 31.33878 | -128.91375 | 37116 ft | 510 kts | 60° |
| 2026-05-05 01:41 | 31.36711 | -128.83755 | 37113 ft | 510 kts | 60° |
| 2026-05-05 01:41 | 31.39538 | -128.76132 | 37114 ft | 510 kts | 60° |
| 2026-05-05 01:42 | 31.42363 | -128.68497 | 37110 ft | 510 kts | 60° |
| 2026-05-05 01:42 | 31.45162 | -128.60917 | 37110 ft | 510 kts | 60° |
| 2026-05-05 01:43 | 31.47972 | -128.53289 | 37109 ft | 510 kts | 60° |
| 2026-05-05 01:43 | 31.50780 | -128.45649 | 37099 ft | 510 kts | 60° |
| 2026-05-05 01:44 | 31.53581 | -128.38013 | 37101 ft | 510 kts | 60° |
| 2026-05-05 01:44 | 31.56380 | -128.30366 | 37103 ft | 510 kts | 61° |
| 2026-05-05 01:45 | 31.59170 | -128.22724 | 37108 ft | 510 kts | 61° |
| 2026-05-05 01:45 | 31.61959 | -128.15069 | 37101 ft | 510 kts | 61° |
| 2026-05-05 01:46 | 31.64726 | -128.07458 | 37098 ft | 510 kts | 61° |
| 2026-05-05 01:46 | 31.67510 | -127.99784 | 37100 ft | 510 kts | 61° |
| 2026-05-05 01:47 | 31.70289 | -127.92105 | 37095 ft | 510 kts | 61° |
| 2026-05-05 01:47 | 31.73059 | -127.84433 | 37096 ft | 510 kts | 61° |
| 2026-05-05 01:48 | 31.75829 | -127.76745 | 37091 ft | 510 kts | 61° |
| 2026-05-05 01:48 | 31.78577 | -127.69102 | 37090 ft | 511 kts | 62° |
| 2026-05-05 01:49 | 31.81339 | -127.61401 | 37088 ft | 511 kts | 62° |
| 2026-05-05 01:49 | 31.84098 | -127.53691 | 37090 ft | 511 kts | 62° |
| 2026-05-05 01:50 | 31.86854 | -127.45969 | 37080 ft | 511 kts | 62° |
| 2026-05-05 01:50 | 31.89584 | -127.38306 | 37084 ft | 511 kts | 62° |
| 2026-05-05 01:51 | 31.92334 | -127.30569 | 37086 ft | 511 kts | 62° |
| 2026-05-05 01:51 | 31.95077 | -127.22832 | 37082 ft | 512 kts | 62° |
| 2026-05-05 01:52 | 31.97818 | -127.15083 | 37086 ft | 512 kts | 62° |
| 2026-05-05 01:52 | 32.00554 | -127.07333 | 37083 ft | 512 kts | 63° |
| 2026-05-05 01:53 | 32.03286 | -126.99574 | 37077 ft | 512 kts | 63° |
| 2026-05-05 01:53 | 32.05997 | -126.91860 | 37079 ft | 513 kts | 63° |
| 2026-05-05 01:54 | 32.08724 | -126.84078 | 37081 ft | 513 kts | 63° |
| 2026-05-05 01:54 | 32.11448 | -126.76289 | 37084 ft | 514 kts | 63° |
| 2026-05-05 01:55 | 32.14168 | -126.68494 | 37080 ft | 514 kts | 63° |
| 2026-05-05 01:55 | 32.16884 | -126.60690 | 37081 ft | 514 kts | 63° |
| 2026-05-05 01:56 | 32.19600 | -126.52869 | 37085 ft | 514 kts | 64° |
| 2026-05-05 01:56 | 32.22309 | -126.45047 | 37084 ft | 515 kts | 64° |
| 2026-05-05 01:57 | 32.24998 | -126.37264 | 37079 ft | 515 kts | 64° |
| 2026-05-05 01:57 | 32.27700 | -126.29428 | 37079 ft | 515 kts | 64° |
| 2026-05-05 01:58 | 32.30397 | -126.21588 | 37079 ft | 515 kts | 64° |
| 2026-05-05 01:58 | 32.33075 | -126.13781 | 37080 ft | 515 kts | 64° |
| 2026-05-05 01:59 | 32.35769 | -126.05912 | 37078 ft | 515 kts | 64° |
| 2026-05-05 01:59 | 32.38452 | -125.98054 | 37078 ft | 515 kts | 64° |
| 2026-05-05 02:00 | 32.41134 | -125.90180 | 37077 ft | 516 kts | 65° |
| 2026-05-05 02:00 | 32.43809 | -125.82308 | 37081 ft | 516 kts | 65° |
| 2026-05-05 02:01 | 32.46466 | -125.74469 | 37080 ft | 516 kts | 65° |
| 2026-05-05 02:01 | 32.49133 | -125.66582 | 37089 ft | 516 kts | 65° |
| 2026-05-05 02:02 | 32.51799 | -125.58679 | 37087 ft | 516 kts | 65° |
| 2026-05-05 02:02 | 32.54458 | -125.50778 | 37071 ft | 516 kts | 65° |
| 2026-05-05 02:03 | 32.57112 | -125.42871 | 37074 ft | 516 kts | 65° |
| 2026-05-05 02:03 | 32.59763 | -125.34955 | 37075 ft | 516 kts | 65° |
| 2026-05-05 02:04 | 32.62411 | -125.27028 | 37075 ft | 517 kts | 66° |
| 2026-05-05 02:04 | 32.65040 | -125.19138 | 37075 ft | 517 kts | 66° |
| 2026-05-05 02:05 | 32.67678 | -125.11202 | 37078 ft | 517 kts | 66° |
| 2026-05-05 02:05 | 32.70313 | -125.03254 | 37076 ft | 517 kts | 66° |
| 2026-05-05 02:06 | 32.72942 | -124.95308 | 37077 ft | 517 kts | 66° |
| 2026-05-05 02:06 | 32.75564 | -124.87359 | 37075 ft | 517 kts | 66° |
| 2026-05-05 02:07 | 32.78164 | -124.79459 | 37077 ft | 517 kts | 66° |
| 2026-05-05 02:07 | 32.80776 | -124.71501 | 37072 ft | 517 kts | 66° |
| 2026-05-05 02:08 | 32.83385 | -124.63536 | 37074 ft | 517 kts | 67° |
| 2026-05-05 02:08 | 32.85986 | -124.55573 | 37076 ft | 517 kts | 67° |
| 2026-05-05 02:09 | 32.88584 | -124.47596 | 37072 ft | 517 kts | 67° |
| 2026-05-05 02:09 | 32.90740 | -124.40964 | 37071 ft | 517 kts | 67° |
| 2026-05-05 02:10 | 32.93327 | -124.32987 | 37071 ft | 517 kts | 67° |
| 2026-05-05 02:10 | 32.95913 | -124.24993 | 37067 ft | 517 kts | 67° |
| 2026-05-05 02:11 | 32.98493 | -124.16996 | 37071 ft | 517 kts | 68° |
| 2026-05-05 02:11 | 33.01064 | -124.09006 | 37073 ft | 517 kts | 68° |
| 2026-05-05 02:12 | 33.04916 | -123.96999 | 37072 ft | 517 kts | 68° |
| 2026-05-05 02:13 | 33.07458 | -123.89048 | 37070 ft | 517 kts | 68° |
| 2026-05-05 02:13 | 33.10014 | -123.81034 | 37069 ft | 517 kts | 68° |
| 2026-05-05 02:14 | 33.12564 | -123.73019 | 37071 ft | 517 kts | 68° |
| 2026-05-05 02:14 | 33.15110 | -123.64993 | 37070 ft | 517 kts | 68° |
| 2026-05-05 02:15 | 33.17656 | -123.56948 | 37067 ft | 517 kts | 69° |
| 2026-05-05 02:15 | 33.20178 | -123.48958 | 37066 ft | 517 kts | 69° |
| 2026-05-05 02:16 | 33.22710 | -123.40914 | 37064 ft | 518 kts | 69° |
| 2026-05-05 02:16 | 33.25244 | -123.32843 | 37064 ft | 518 kts | 69° |
| 2026-05-05 02:17 | 33.27768 | -123.24781 | 37063 ft | 518 kts | 69° |
| 2026-05-05 02:17 | 33.30293 | -123.16700 | 37061 ft | 519 kts | 69° |
| 2026-05-05 02:18 | 33.32791 | -123.08599 | 37059 ft | 519 kts | 70° |
| 2026-05-05 02:18 | 33.35264 | -123.00544 | 37056 ft | 519 kts | 70° |
| 2026-05-05 02:19 | 33.37777 | -122.92438 | 37061 ft | 519 kts | 70° |
| 2026-05-05 02:19 | 33.40291 | -122.84343 | 37058 ft | 519 kts | 70° |
| 2026-05-05 02:20 | 33.42807 | -122.76216 | 37056 ft | 520 kts | 70° |
| 2026-05-05 02:20 | 33.45302 | -122.68134 | 37058 ft | 520 kts | 70° |
| 2026-05-05 02:21 | 33.47804 | -122.60002 | 37061 ft | 521 kts | 70° |
| 2026-05-05 02:21 | 33.50543 | -122.51964 | 37059 ft | 521 kts | 65° |
| 2026-05-05 02:22 | 33.53642 | -122.44111 | 37059 ft | 522 kts | 65° |
| 2026-05-05 02:22 | 33.56695 | -122.36213 | 37059 ft | 522 kts | 65° |
| 2026-05-05 02:23 | 33.59707 | -122.28267 | 37053 ft | 523 kts | 66° |
| 2026-05-05 02:23 | 33.62692 | -122.20350 | 37054 ft | 523 kts | 66° |
| 2026-05-05 02:24 | 33.65697 | -122.12361 | 37051 ft | 524 kts | 66° |
| 2026-05-05 02:24 | 33.68678 | -122.04421 | 37052 ft | 524 kts | 66° |
| 2026-05-05 02:25 | 33.71674 | -121.96421 | 37056 ft | 525 kts | 66° |
| 2026-05-05 02:25 | 33.74672 | -121.88395 | 37049 ft | 526 kts | 66° |
| 2026-05-05 02:26 | 33.77663 | -121.80365 | 37053 ft | 526 kts | 66° |
| 2026-05-05 02:26 | 33.80630 | -121.72382 | 37053 ft | 526 kts | 66° |
| 2026-05-05 02:27 | 33.83613 | -121.64338 | 37052 ft | 527 kts | 66° |
| 2026-05-05 02:27 | 33.86594 | -121.56275 | 37049 ft | 527 kts | 67° |
| 2026-05-05 02:28 | 33.89574 | -121.48197 | 37046 ft | 528 kts | 67° |
| 2026-05-05 02:28 | 33.92412 | -121.40487 | 37046 ft | 528 kts | 67° |
| 2026-05-05 02:29 | 33.94788 | -121.34021 | 37036 ft | 529 kts | 67° |
| 2026-05-05 02:29 | 33.97578 | -121.26411 | 37037 ft | 529 kts | 67° |
| 2026-05-05 02:30 | 34.00545 | -121.18292 | 37041 ft | 530 kts | 67° |
| 2026-05-05 02:30 | 34.03514 | -121.10146 | 37038 ft | 530 kts | 68° |
| 2026-05-05 02:31 | 34.06481 | -121.01988 | 37037 ft | 531 kts | 68° |
| 2026-05-05 02:31 | 34.09428 | -120.93865 | 37040 ft | 531 kts | 68° |
| 2026-05-05 02:32 | 34.12385 | -120.85693 | 37039 ft | 532 kts | 68° |
| 2026-05-05 02:32 | 34.15341 | -120.77501 | 37039 ft | 532 kts | 68° |
| 2026-05-05 02:33 | 34.18297 | -120.69290 | 37038 ft | 533 kts | 68° |
| 2026-05-05 02:33 | 34.21248 | -120.61070 | 37041 ft | 534 kts | 68° |
| 2026-05-05 02:34 | 34.24198 | -120.52833 | 37038 ft | 534 kts | 69° |
| 2026-05-05 02:34 | 34.27145 | -120.44583 | 37046 ft | 535 kts | 69° |
| 2026-05-05 02:35 | 34.30091 | -120.36314 | 37045 ft | 535 kts | 69° |
| 2026-05-05 02:35 | 34.33034 | -120.28031 | 37041 ft | 536 kts | 69° |
| 2026-05-05 02:36 | 34.35954 | -120.19791 | 37037 ft | 536 kts | 69° |
| 2026-05-05 02:36 | 34.38896 | -120.11470 | 37030 ft | 537 kts | 69° |
| 2026-05-05 02:37 | 34.41829 | -120.03151 | 37025 ft | 537 kts | 69° |
| 2026-05-05 02:37 | 34.44765 | -119.94804 | 37028 ft | 538 kts | 69° |
| 2026-05-05 02:38 | 34.47675 | -119.86505 | 37028 ft | 538 kts | 69° |
| 2026-05-05 02:38 | 34.50264 | -119.78011 | 37032 ft | 535 kts | 78° |
| 2026-05-05 02:39 | 34.51595 | -119.69176 | 37022 ft | 528 kts | 90° |
| 2026-05-05 02:39 | 34.52249 | -119.60294 | 37021 ft | 529 kts | 89° |
| 2026-05-05 02:40 | 34.52944 | -119.51394 | 37023 ft | 530 kts | 89° |
| 2026-05-05 02:40 | 34.53623 | -119.42546 | 37007 ft | 531 kts | 90° |
| 2026-05-05 02:41 | 34.54296 | -119.33631 | 37022 ft | 531 kts | 90° |
| 2026-05-05 02:41 | 34.54960 | -119.24697 | 37004 ft | 531 kts | 90° |
| 2026-05-05 02:42 | 34.55621 | -119.15775 | 37014 ft | 531 kts | 90° |
| 2026-05-05 02:42 | 34.56269 | -119.06838 | 37012 ft | 532 kts | 90° |
| 2026-05-05 02:43 | 34.56909 | -118.97943 | 37012 ft | 532 kts | 90° |
| 2026-05-05 02:43 | 34.57554 | -118.88993 | 37003 ft | 532 kts | 91° |
| 2026-05-05 02:44 | 34.58186 | -118.80029 | 37009 ft | 535 kts | 91° |
| 2026-05-05 02:44 | 34.58814 | -118.71024 | 36990 ft | 536 kts | 91° |
| 2026-05-05 02:45 | 34.59440 | -118.62030 | 36992 ft | 533 kts | 91° |
| 2026-05-05 02:45 | 34.60056 | -118.53064 | 36985 ft | 532 kts | 91° |
| 2026-05-05 02:46 | 34.60664 | -118.44070 | 36987 ft | 535 kts | 91° |
| 2026-05-05 02:46 | 34.61266 | -118.35076 | 36987 ft | 535 kts | 91° |
| 2026-05-05 02:47 | 34.61864 | -118.26076 | 36988 ft | 536 kts | 91° |
| 2026-05-05 02:47 | 34.62451 | -118.17109 | 36994 ft | 537 kts | 92° |
| 2026-05-05 02:48 | 34.63081 | -118.08063 | 36993 ft | 540 kts | 88° |
| 2026-05-05 02:48 | 34.64794 | -117.99100 | 36996 ft | 548 kts | 79° |
| 2026-05-05 02:49 | 34.66860 | -117.90175 | 36993 ft | 548 kts | 79° |
| 2026-05-05 02:49 | 34.68902 | -117.81221 | 36975 ft | 549 kts | 79° |
| 2026-05-05 02:50 | 34.70933 | -117.72272 | 36945 ft | 549 kts | 79° |
| 2026-05-05 02:50 | 34.72956 | -117.63325 | 36970 ft | 549 kts | 79° |
| 2026-05-05 02:51 | 34.74966 | -117.54408 | 36984 ft | 548 kts | 79° |
| 2026-05-05 02:51 | 34.76978 | -117.45446 | 36991 ft | 548 kts | 79° |
| 2026-05-05 02:52 | 34.78982 | -117.36484 | 36981 ft | 549 kts | 80° |
| 2026-05-05 02:52 | 34.80964 | -117.27586 | 36962 ft | 549 kts | 80° |
| 2026-05-05 02:53 | 34.82960 | -117.18597 | 36946 ft | 549 kts | 80° |
| 2026-05-05 02:53 | 34.84948 | -117.09606 | 36917 ft | 550 kts | 80° |
| 2026-05-05 02:54 | 34.86933 | -117.00596 | 36917 ft | 550 kts | 80° |
| 2026-05-05 02:54 | 34.88910 | -116.91585 | 36921 ft | 551 kts | 80° |
| 2026-05-05 02:55 | 34.90871 | -116.82612 | 36923 ft | 552 kts | 80° |
| 2026-05-05 02:55 | 34.92841 | -116.73566 | 36925 ft | 553 kts | 80° |
| 2026-05-05 02:56 | 34.94807 | -116.64505 | 36917 ft | 553 kts | 79° |
| 2026-05-05 02:56 | 34.97207 | -116.55570 | 36902 ft | 559 kts | 68° |
| 2026-05-05 02:57 | 35.00730 | -116.47096 | 36893 ft | 560 kts | 65° |
| 2026-05-05 02:57 | 35.04267 | -116.38619 | 36886 ft | 560 kts | 65° |
| 2026-05-05 02:58 | 35.07196 | -116.31567 | 36884 ft | 561 kts | 65° |
| 2026-05-05 02:58 | 35.11286 | -116.21694 | 36888 ft | 560 kts | 65° |
| 2026-05-05 02:59 | 35.14215 | -116.14611 | 36882 ft | 560 kts | 65° |
| 2026-05-05 02:59 | 35.17728 | -116.06093 | 36885 ft | 560 kts | 65° |
| 2026-05-05 03:00 | 35.21234 | -115.97572 | 36888 ft | 560 kts | 65° |
| 2026-05-05 03:00 | 35.24726 | -115.89062 | 36895 ft | 559 kts | 65° |
| 2026-05-05 03:01 | 35.28210 | -115.80548 | 36899 ft | 559 kts | 65° |
| 2026-05-05 03:01 | 35.31679 | -115.72048 | 36900 ft | 558 kts | 65° |
| 2026-05-05 03:02 | 35.35151 | -115.63523 | 36905 ft | 558 kts | 65° |
| 2026-05-05 03:02 | 35.38587 | -115.55062 | 36904 ft | 558 kts | 65° |
| 2026-05-05 03:03 | 35.42049 | -115.46514 | 36913 ft | 560 kts | 65° |
| 2026-05-05 03:03 | 35.45504 | -115.37964 | 36904 ft | 560 kts | 66° |
| 2026-05-05 03:04 | 35.48738 | -115.29938 | 36903 ft | 561 kts | 66° |
| 2026-05-05 03:04 | 35.51455 | -115.23184 | 36882 ft | 562 kts | 66° |
| 2026-05-05 03:05 | 35.54323 | -115.16036 | 36871 ft | 564 kts | 66° |
| 2026-05-05 03:05 | 35.57814 | -115.07317 | 36872 ft | 565 kts | 66° |
| 2026-05-05 03:06 | 35.61274 | -114.98650 | 36859 ft | 565 kts | 66° |
| 2026-05-05 03:06 | 35.64732 | -114.89962 | 36845 ft | 567 kts | 67° |
| 2026-05-05 03:07 | 35.68197 | -114.81236 | 36833 ft | 568 kts | 67° |
| 2026-05-05 03:07 | 35.71666 | -114.72474 | 36818 ft | 571 kts | 67° |
| 2026-05-05 03:08 | 35.75140 | -114.63682 | 36806 ft | 572 kts | 68° |
| 2026-05-05 03:08 | 35.78616 | -114.54854 | 36779 ft | 573 kts | 68° |
| 2026-05-05 03:09 | 35.82097 | -114.45992 | 36754 ft | 575 kts | 68° |
| 2026-05-05 03:09 | 35.85560 | -114.37151 | 36754 ft | 576 kts | 68° |
| 2026-05-05 03:10 | 35.89047 | -114.28225 | 36761 ft | 578 kts | 68° |
| 2026-05-05 03:10 | 35.92530 | -114.19285 | 36764 ft | 579 kts | 68° |
| 2026-05-05 03:11 | 35.96024 | -114.10291 | 36768 ft | 581 kts | 68° |
| 2026-05-05 03:11 | 35.99520 | -114.01277 | 36777 ft | 582 kts | 68° |
| 2026-05-05 03:12 | 36.03296 | -113.92385 | 36782 ft | 586 kts | 63° |
| 2026-05-05 03:12 | 36.07406 | -113.83678 | 36787 ft | 587 kts | 63° |
| 2026-05-05 03:13 | 36.11453 | -113.74917 | 36794 ft | 586 kts | 64° |
| 2026-05-05 03:13 | 36.15407 | -113.66223 | 36802 ft | 587 kts | 64° |
| 2026-05-05 03:14 | 36.19399 | -113.57399 | 36814 ft | 587 kts | 64° |
| 2026-05-05 03:14 | 36.23384 | -113.48570 | 36822 ft | 587 kts | 64° |
| 2026-05-05 03:15 | 36.27345 | -113.39776 | 36821 ft | 588 kts | 64° |
| 2026-05-05 03:15 | 36.31340 | -113.30877 | 36836 ft | 590 kts | 64° |
| 2026-05-05 03:16 | 36.35335 | -113.21960 | 36839 ft | 591 kts | 64° |
| 2026-05-05 03:16 | 36.39293 | -113.13098 | 36829 ft | 591 kts | 64° |
| 2026-05-05 03:17 | 36.43278 | -113.04156 | 36837 ft | 592 kts | 64° |
| 2026-05-05 03:17 | 36.47260 | -112.95195 | 36834 ft | 593 kts | 64° |
| 2026-05-05 03:18 | 36.51244 | -112.86202 | 36837 ft | 593 kts | 64° |
| 2026-05-05 03:18 | 36.55220 | -112.77205 | 36841 ft | 594 kts | 64° |
| 2026-05-05 03:19 | 36.61173 | -112.63685 | 36834 ft | 594 kts | 64° |
| 2026-05-05 03:19 | 36.65096 | -112.54747 | 36836 ft | 592 kts | 64° |
| 2026-05-05 03:20 | 36.69041 | -112.45728 | 36846 ft | 593 kts | 64° |
| 2026-05-05 03:20 | 36.72986 | -112.36693 | 36847 ft | 593 kts | 64° |
| 2026-05-05 03:21 | 36.76931 | -112.27630 | 36849 ft | 594 kts | 64° |
| 2026-05-05 03:21 | 36.80868 | -112.18558 | 36845 ft | 594 kts | 64° |
| 2026-05-05 03:22 | 36.84799 | -112.09479 | 36837 ft | 595 kts | 64° |
| 2026-05-05 03:22 | 36.88730 | -112.00372 | 36822 ft | 595 kts | 64° |
| 2026-05-05 03:23 | 36.92647 | -111.91271 | 36809 ft | 595 kts | 64° |
| 2026-05-05 03:23 | 36.96544 | -111.82189 | 36812 ft | 596 kts | 64° |
| 2026-05-05 03:24 | 37.00463 | -111.73036 | 36813 ft | 596 kts | 64° |
| 2026-05-05 03:24 | 37.04375 | -111.63869 | 36828 ft | 597 kts | 64° |
| 2026-05-05 03:25 | 37.08246 | -111.54774 | 36824 ft | 595 kts | 64° |
| 2026-05-05 03:25 | 37.12136 | -111.45609 | 36823 ft | 596 kts | 64° |
| 2026-05-05 03:26 | 37.16020 | -111.36432 | 36792 ft | 595 kts | 64° |
| 2026-05-05 03:26 | 37.19890 | -111.27266 | 36763 ft | 594 kts | 64° |
| 2026-05-05 03:27 | 37.23726 | -111.18079 | 36734 ft | 593 kts | 65° |
| 2026-05-05 03:27 | 37.27370 | -111.08853 | 36729 ft | 594 kts | 66° |
| 2026-05-05 03:28 | 37.31037 | -110.99560 | 36722 ft | 593 kts | 66° |
| 2026-05-05 03:28 | 37.34720 | -110.90253 | 36716 ft | 594 kts | 65° |
| 2026-05-05 03:29 | 37.38394 | -110.80953 | 36725 ft | 594 kts | 65° |
| 2026-05-05 03:29 | 37.42079 | -110.71609 | 36718 ft | 596 kts | 65° |
| 2026-05-05 03:30 | 37.45473 | -110.62964 | 36729 ft | 596 kts | 65° |
| 2026-05-05 03:30 | 37.48931 | -110.54129 | 36719 ft | 596 kts | 65° |
| 2026-05-05 03:31 | 37.52568 | -110.44813 | 36723 ft | 596 kts | 65° |
| 2026-05-05 03:31 | 37.56228 | -110.35416 | 36739 ft | 597 kts | 65° |
| 2026-05-05 03:32 | 37.59885 | -110.26007 | 36730 ft | 596 kts | 65° |
| 2026-05-05 03:32 | 37.63525 | -110.16588 | 36755 ft | 597 kts | 65° |
| 2026-05-05 03:33 | 37.67167 | -110.07144 | 36760 ft | 598 kts | 65° |
| 2026-05-05 03:33 | 37.70793 | -109.97716 | 36773 ft | 596 kts | 65° |
| 2026-05-05 03:34 | 37.74407 | -109.88289 | 36789 ft | 595 kts | 65° |
| 2026-05-05 03:34 | 37.78013 | -109.78848 | 36806 ft | 598 kts | 65° |
| 2026-05-05 03:35 | 37.81622 | -109.69388 | 36825 ft | 597 kts | 65° |
| 2026-05-05 03:35 | 37.85202 | -109.59975 | 36831 ft | 596 kts | 64° |
| 2026-05-05 03:36 | 37.88789 | -109.50516 | 36870 ft | 598 kts | 64° |
| 2026-05-05 03:36 | 37.92364 | -109.41046 | 36806 ft | 595 kts | 64° |
| 2026-05-05 03:37 | 37.95936 | -109.31561 | 36806 ft | 596 kts | 64° |
| 2026-05-05 03:37 | 37.99486 | -109.22103 | 36801 ft | 596 kts | 64° |
| 2026-05-05 03:38 | 38.03054 | -109.12564 | 36808 ft | 596 kts | 64° |
| 2026-05-05 03:38 | 38.06585 | -109.03101 | 36794 ft | 597 kts | 64° |
| 2026-05-05 03:39 | 38.10139 | -108.93552 | 36798 ft | 597 kts | 64° |
| 2026-05-05 03:39 | 38.13786 | -108.84161 | 36791 ft | 594 kts | 62° |
| 2026-05-05 03:40 | 38.17521 | -108.74759 | 36786 ft | 595 kts | 62° |
| 2026-05-05 03:40 | 38.21226 | -108.65335 | 36793 ft | 596 kts | 62° |
| 2026-05-05 03:41 | 38.24888 | -108.55959 | 36793 ft | 592 kts | 62° |
| 2026-05-05 03:41 | 38.28564 | -108.46514 | 36799 ft | 595 kts | 62° |
| 2026-05-05 03:42 | 38.32231 | -108.37063 | 36792 ft | 594 kts | 62° |
| 2026-05-05 03:42 | 38.35857 | -108.27684 | 36809 ft | 594 kts | 62° |
| 2026-05-05 03:43 | 38.39497 | -108.18250 | 36842 ft | 592 kts | 62° |
| 2026-05-05 03:43 | 38.43138 | -108.08781 | 36885 ft | 592 kts | 62° |
| 2026-05-05 03:44 | 38.46752 | -107.99344 | 36933 ft | 592 kts | 62° |
| 2026-05-05 03:44 | 38.50355 | -107.89829 | 36935 ft | 595 kts | 62° |
| 2026-05-05 03:45 | 38.53330 | -107.81927 | 36936 ft | 593 kts | 62° |
| 2026-05-05 03:45 | 38.57490 | -107.70855 | 36890 ft | 593 kts | 62° |
| 2026-05-05 03:46 | 38.60454 | -107.62951 | 36859 ft | 593 kts | 62° |
| 2026-05-05 03:46 | 38.64002 | -107.53442 | 36826 ft | 591 kts | 62° |
| 2026-05-05 03:47 | 38.67562 | -107.43944 | 36810 ft | 592 kts | 62° |
| 2026-05-05 03:47 | 38.71159 | -107.34477 | 36825 ft | 590 kts | 62° |
| 2026-05-05 03:48 | 38.74735 | -107.25027 | 36853 ft | 586 kts | 62° |
| 2026-05-05 03:48 | 38.78281 | -107.15606 | 36866 ft | 593 kts | 62° |
| 2026-05-05 03:49 | 38.81830 | -107.06139 | 36882 ft | 585 kts | 61° |
| 2026-05-05 03:49 | 38.85360 | -106.96698 | 36863 ft | 587 kts | 62° |
| 2026-05-05 03:50 | 38.88902 | -106.87199 | 36613 ft | 587 kts | 61° |
| 2026-05-05 03:50 | 38.90659 | -106.82462 | 36151 ft | 586 kts | 61° |
| 2026-05-05 03:50 | 38.92385 | -106.77808 | 35461 ft | 585 kts | 61° |
| 2026-05-05 03:51 | 38.94134 | -106.73089 | 34669 ft | 585 kts | 61° |
| 2026-05-05 03:51 | 38.95883 | -106.68361 | 33776 ft | 585 kts | 60° |
| 2026-05-05 03:51 | 38.97633 | -106.63626 | 32792 ft | 577 kts | 61° |
| 2026-05-05 03:51 | 38.99323 | -106.59045 | 31867 ft | 565 kts | 61° |
| 2026-05-05 03:52 | 39.00979 | -106.54546 | 31483 ft | 546 kts | 62° |
| 2026-05-05 03:52 | 39.02562 | -106.50214 | 31153 ft | 527 kts | 61° |
| 2026-05-05 03:52 | 39.04112 | -106.45975 | 30606 ft | 516 kts | 62° |
| 2026-05-05 03:52 | 39.05624 | -106.41838 | 30016 ft | 506 kts | 62° |
| 2026-05-05 03:53 | 39.07099 | -106.37794 | 29326 ft | 495 kts | 62° |
| 2026-05-05 03:53 | 39.08555 | -106.33800 | 28815 ft | 490 kts | 62° |
| 2026-05-05 03:53 | 39.09990 | -106.29853 | 28348 ft | 483 kts | 62° |
| 2026-05-05 03:53 | 39.11404 | -106.25962 | 27910 ft | 477 kts | 63° |
| 2026-05-05 03:54 | 39.12798 | -106.22121 | 27416 ft | 471 kts | 63° |
| 2026-05-05 03:54 | 39.14181 | -106.18308 | 26944 ft | 466 kts | 63° |
| 2026-05-05 03:54 | 39.15537 | -106.14558 | 26300 ft | 457 kts | 63° |
| 2026-05-05 03:54 | 39.16849 | -106.10921 | 25559 ft | 449 kts | 63° |
| 2026-05-05 03:55 | 39.18150 | -106.07300 | 24851 ft | 441 kts | 63° |
| 2026-05-05 03:55 | 39.19436 | -106.03720 | 24145 ft | 436 kts | 63° |
| 2026-05-05 03:55 | 39.20700 | -106.00197 | 23671 ft | 430 kts | 63° |
| 2026-05-05 03:55 | 39.21945 | -105.96720 | 23083 ft | 425 kts | 63° |
| 2026-05-05 03:56 | 39.23174 | -105.93285 | 22558 ft | 418 kts | 63° |
| 2026-05-05 03:56 | 39.24384 | -105.89900 | 22110 ft | 410 kts | 63° |
| 2026-05-05 03:56 | 39.25558 | -105.86636 | 21671 ft | 401 kts | 63° |
| 2026-05-05 03:56 | 39.26734 | -105.83377 | 21255 ft | 393 kts | 63° |
| 2026-05-05 03:57 | 39.27864 | -105.80242 | 20867 ft | 386 kts | 63° |
| 2026-05-05 03:57 | 39.28984 | -105.77132 | 20479 ft | 379 kts | 63° |
| 2026-05-05 03:57 | 39.30085 | -105.74070 | 20098 ft | 373 kts | 63° |
| 2026-05-05 03:57 | 39.31207 | -105.70951 | 19720 ft | 396 kts | 63° |
| 2026-05-05 03:58 | 39.32385 | -105.67675 | 19600 ft | 403 kts | 63° |
| 2026-05-05 03:58 | 39.33561 | -105.64412 | 19543 ft | 396 kts | 63° |
| 2026-05-05 03:58 | 39.34721 | -105.61231 | 19293 ft | 387 kts | 63° |
| 2026-05-05 03:58 | 39.35864 | -105.58106 | 18549 ft | 383 kts | 63° |
| 2026-05-05 03:59 | 39.36999 | -105.55005 | 17980 ft | 379 kts | 63° |
| 2026-05-05 03:59 | 39.38109 | -105.51962 | 17643 ft | 368 kts | 63° |
| 2026-05-05 03:59 | 39.39187 | -105.48999 | 17301 ft | 359 kts | 63° |
| 2026-05-05 03:59 | 39.40219 | -105.46158 | 17008 ft | 349 kts | 63° |
| 2026-05-05 04:00 | 39.41167 | -105.43321 | 16875 ft | 342 kts | 70° |
| 2026-05-05 04:00 | 39.41692 | -105.40295 | 16681 ft | 348 kts | 83° |
| 2026-05-05 04:00 | 39.41753 | -105.37169 | 16433 ft | 347 kts | 90° |
| 2026-05-05 04:00 | 39.41737 | -105.34065 | 16135 ft | 343 kts | 90° |
| 2026-05-05 04:01 | 39.41738 | -105.31020 | 15818 ft | 335 kts | 90° |
| 2026-05-05 04:01 | 39.41748 | -105.28035 | 15494 ft | 328 kts | 89° |
| 2026-05-05 04:01 | 39.41763 | -105.25123 | 15206 ft | 319 kts | 89° |
| 2026-05-05 04:01 | 39.41780 | -105.22290 | 14903 ft | 311 kts | 89° |
| 2026-05-05 04:02 | 39.41797 | -105.19491 | 14624 ft | 321 kts | 89° |
| 2026-05-05 04:02 | 39.41814 | -105.16465 | 14308 ft | 348 kts | 89° |
| 2026-05-05 04:02 | 39.41829 | -105.13324 | 14237 ft | 347 kts | 89° |
| 2026-05-05 04:02 | 39.41841 | -105.10257 | 14044 ft | 338 kts | 90° |
| 2026-05-05 04:03 | 39.41853 | -105.07274 | 13714 ft | 333 kts | 89° |
| 2026-05-05 04:03 | 39.41864 | -105.04289 | 13249 ft | 329 kts | 90° |
| 2026-05-05 04:03 | 39.41874 | -105.01384 | 13038 ft | 315 kts | 90° |
| 2026-05-05 04:03 | 39.41883 | -104.98636 | 12997 ft | 296 kts | 90° |
| 2026-05-05 04:04 | 39.41890 | -104.96074 | 12999 ft | 275 kts | 90° |
| 2026-05-05 04:04 | 39.41937 | -104.93612 | 13014 ft | 277 kts | 84° |
| 2026-05-05 04:04 | 39.42158 | -104.91133 | 12951 ft | 275 kts | 82° |
| 2026-05-05 04:04 | 39.42391 | -104.88689 | 12732 ft | 272 kts | 83° |
| 2026-05-05 04:05 | 39.42611 | -104.86321 | 12589 ft | 257 kts | 83° |
| 2026-05-05 04:05 | 39.42813 | -104.84092 | 12453 ft | 242 kts | 83° |
| 2026-05-05 04:05 | 39.43001 | -104.81984 | 12283 ft | 231 kts | 83° |
| 2026-05-05 04:05 | 39.43183 | -104.79930 | 11956 ft | 228 kts | 83° |
| 2026-05-05 04:06 | 39.43359 | -104.77930 | 11661 ft | 225 kts | 83° |
| 2026-05-05 04:06 | 39.43605 | -104.75917 | 11282 ft | 224 kts | 74° |
| 2026-05-05 04:06 | 39.44143 | -104.74064 | 10966 ft | 221 kts | 65° |
| 2026-05-05 04:06 | 39.44748 | -104.72246 | 10688 ft | 217 kts | 66° |
| 2026-05-05 04:07 | 39.45330 | -104.70458 | 10412 ft | 214 kts | 67° |
| 2026-05-05 04:07 | 39.46169 | -104.68892 | 10088 ft | 212 kts | 40° |
| 2026-05-05 04:07 | 39.47445 | -104.67977 | 9797 ft | 209 kts | 23° |
| 2026-05-05 04:07 | 39.48787 | -104.67248 | 9447 ft | 209 kts | 24° |
| 2026-05-05 04:08 | 39.50111 | -104.66494 | 9188 ft | 206 kts | 24° |
| 2026-05-05 04:08 | 39.51397 | -104.65734 | 9038 ft | 207 kts | 25° |
| 2026-05-05 04:08 | 39.52714 | -104.64963 | 9016 ft | 207 kts | 21° |
| 2026-05-05 04:08 | 39.54118 | -104.64524 | 9017 ft | 209 kts | 6° |
| 2026-05-05 04:09 | 39.55522 | -104.64445 | 9011 ft | 194 kts | 359° |
| 2026-05-05 04:09 | 39.56813 | -104.64466 | 8988 ft | 180 kts | 360° |
| 2026-05-05 04:09 | 39.58096 | -104.64455 | 8987 ft | 185 kts | 1° |
| 2026-05-05 04:09 | 39.59377 | -104.64437 | 8995 ft | 183 kts | 0° |
| 2026-05-05 04:10 | 39.60650 | -104.64422 | 9001 ft | 183 kts | 0° |
| 2026-05-05 04:10 | 39.61913 | -104.64407 | 9003 ft | 183 kts | 0° |
| 2026-05-05 04:10 | 39.63194 | -104.64392 | 9007 ft | 183 kts | 0° |
| 2026-05-05 04:10 | 39.64468 | -104.64378 | 9003 ft | 183 kts | 0° |
| 2026-05-05 04:11 | 39.65727 | -104.64363 | 8854 ft | 185 kts | 0° |
| 2026-05-05 04:11 | 39.67010 | -104.64349 | 8585 ft | 177 kts | 0° |
| 2026-05-05 04:11 | 39.68231 | -104.64335 | 8362 ft | 181 kts | 0° |
| 2026-05-05 04:11 | 39.69458 | -104.64321 | 8114 ft | 168 kts | 0° |
| 2026-05-05 04:12 | 39.70576 | -104.64308 | 7894 ft | 157 kts | 1° |
| 2026-05-05 04:12 | 39.71699 | -104.64295 | 7695 ft | 162 kts | 1° |
| 2026-05-05 04:12 | 39.72810 | -104.64282 | 7481 ft | 157 kts | 1° |
| 2026-05-05 04:12 | 39.73907 | -104.64270 | 7281 ft | 158 kts | 1° |
| 2026-05-05 04:13 | 39.75000 | -104.64257 | 7088 ft | 157 kts | 1° |
| 2026-05-05 04:13 | 39.76094 | -104.64246 | 6889 ft | 156 kts | 1° |
| 2026-05-05 04:13 | 39.77179 | -104.64233 | 6696 ft | 156 kts | 1° |
| 2026-05-05 04:13 | 39.78259 | -104.64220 | 6479 ft | 154 kts | 1° |
| 2026-05-05 04:14 | 39.78527 | -104.64217 | 6425 ft | 155 kts | 1° |
| 2026-05-05 04:14 | 39.79661 | -104.64203 | 6184 ft | 154 kts | 1° |
| 2026-05-05 04:14 | 39.80726 | -104.64191 | 5963 ft | 153 kts | 360° |
| 2026-05-05 04:14 | 39.81792 | -104.64170 | 5679 ft | 154 kts | 359° |
| 2026-05-05 04:15 | 39.82822 | -104.64163 | 5461 ft | 144 kts | 357° |
| 2026-05-05 04:15 | 39.83871 | -104.64159 | 5381 ft | 151 kts | 356° |
| 2026-05-05 04:15 | 39.84780 | -104.64154 | 5363 ft | 103 kts | 0° |
| 2026-05-05 04:15 | 39.85334 | -104.64151 | 5356 ft | 67 kts | 0° |
| 2026-05-05 04:16 | 39.85573 | -104.64209 | 5357 ft | 28 kts | 336° |
| 2026-05-05 04:16 | 39.85734 | -104.64323 | 5357 ft | 17 kts | 317° |
| 2026-05-05 04:16 | 39.85737 | -104.64333 | 5357 ft | 0 kts | 301° |
| 2026-05-05 04:16 | 39.85757 | -104.64349 | 5357 ft | 12 kts | 328° |
| 2026-05-05 04:17 | 39.85841 | -104.64407 | 5356 ft | 15 kts | 332° |
| 2026-05-05 04:17 | 39.85934 | -104.64471 | 5353 ft | 15 kts | 332° |
| 2026-05-05 04:17 | 39.86021 | -104.64534 | 5353 ft | 14 kts | 330° |
| 2026-05-05 04:17 | 39.86124 | -104.64611 | 5353 ft | 20 kts | 330° |
| 2026-05-05 04:18 | 39.86257 | -104.64707 | 5354 ft | 23 kts | 332° |
| 2026-05-05 04:18 | 39.86387 | -104.64803 | 5354 ft | 20 kts | 329° |
| 2026-05-05 04:18 | 39.86479 | -104.64896 | 5360 ft | 14 kts | 299° |
| 2026-05-05 04:18 | 39.86491 | -104.64982 | 5364 ft | 6 kts | 274° |
| 2026-05-05 04:19 | 39.86491 | -104.65046 | 5366 ft | 12 kts | 271° |
| 2026-05-05 04:19 | 39.86493 | -104.65203 | 5366 ft | 19 kts | 270° |
| 2026-05-05 04:19 | 39.86493 | -104.65345 | 5373 ft | 12 kts | 270° |
| 2026-05-05 04:19 | 39.86493 | -104.65449 | 5376 ft | 12 kts | 270° |
| 2026-05-05 04:20 | 39.86494 | -104.65568 | 5379 ft | 14 kts | 272° |
| 2026-05-05 04:20 | 39.86496 | -104.65710 | 5376 ft | 17 kts | 270° |
| 2026-05-05 04:20 | 39.86498 | -104.65878 | 5386 ft | 20 kts | 270° |
| 2026-05-05 04:20 | 39.86499 | -104.66071 | 5380 ft | 24 kts | 270° |
| 2026-05-05 04:21 | 39.86498 | -104.66284 | 5386 ft | 20 kts | 258° |
| 2026-05-05 04:21 | 39.86395 | -104.66341 | 5386 ft | 17 kts | 183° |
| 2026-05-05 04:21 | 39.86261 | -104.66344 | 5389 ft | 21 kts | 180° |
| 2026-05-05 04:21 | 39.86110 | -104.66346 | 5388 ft | 23 kts | 181° |
| 2026-05-05 04:22 | 39.85933 | -104.66348 | 5389 ft | 27 kts | 180° |
| 2026-05-05 04:22 | 39.85751 | -104.66350 | 5395 ft | 25 kts | 181° |
| 2026-05-05 04:22 | 39.85593 | -104.66376 | 5389 ft | 20 kts | 216° |
| 2026-05-05 04:22 | 39.85581 | -104.66483 | 5398 ft | 11 kts | 275° |
| 2026-05-05 04:23 | 39.85582 | -104.66587 | 5396 ft | 12 kts | 271° |
| 2026-05-05 04:23 | 39.85584 | -104.66702 | 5393 ft | 13 kts | 271° |
| 2026-05-05 04:23 | 39.85586 | -104.66828 | 5390 ft | 14 kts | 272° |
| 2026-05-05 04:23 | 39.85584 | -104.66953 | 5389 ft | 13 kts | 259° |
| 2026-05-05 04:24 | 39.85534 | -104.67034 | 5388 ft | 10 kts | 235° |
| 2026-05-05 04:24 | 39.85496 | -104.67103 | 5389 ft | 9 kts | 227° |
| 2026-05-05 04:24 | 39.85452 | -104.67114 | 5388 ft | 3 kts | 170° |
| 2026-05-05 04:25 | 39.85445 | -104.67115 | 5385 ft | 0 kts | 181° |